EGGD/BRS METAR and TAF weather

Enter ICAO airport designator
Station Type Date Time Source
EGGD METAR 2021/03/05 12:50 UTC NOAA

EGGD 051250Z AUTO 04013KT 010V070 9999 OVC031 04/M03 Q1032


Station Type Date Time Source
EGGD Decoded METAR 2021/03/05 12:50 UTC NOAA

Bristol / Lulsgate , United Kingdom (EGGD) 51-23N 002-43W
Mar 05, 2021 - 07:50 AM EST / 2021.03.05 1250 UTC
Wind: from the NE (040 degrees) at 15 MPH (13 KT) (direction variable):0
Visibility: greater than 7 mile(s):0
Sky conditions: overcast
Temperature: 39 F (4 C)
Dew Point: 26 F (-3 C)
Relative Humidity: 60%
Pressure (altimeter): 30.47 in. Hg (1032 hPa)
ob: EGGD 051250Z AUTO 04013KT 010V070 9999 OVC031 04/M03 Q1032
cycle: 13

Station Type Date Time Source
EGGD TAF 2021/03/05 12:09 UTC NOAA

TAF EGGD 051106Z 0512/0612 04010KT 9999 SCT030

Example: see airport list